sensor_id;sensor_type;location;lat;lon;timestamp;P1;durP1;ratioP1;P2;durP2;ratioP2
19183;SDS011;9724;51.194;6.856;2023-02-01T00:00:49;25.97;;;9.10;;
19183;SDS011;9724;51.194;6.856;2023-02-01T00:03:15;23.30;;;8.60;;
19183;SDS011;9724;51.194;6.856;2023-02-01T00:05:44;26.00;;;10.23;;
19183;SDS011;9724;51.194;6.856;2023-02-01T00:08:20;25.17;;;9.00;;
19183;SDS011;9724;51.194;6.856;2023-02-01T00:10:46;24.20;;;9.37;;
19183;SDS011;9724;51.194;6.856;2023-02-01T00:13:13;26.00;;;10.50;;
19183;SDS011;9724;51.194;6.856;2023-02-01T00:15:39;23.23;;;10.30;;
19183;SDS011;9724;51.194;6.856;2023-02-01T00:18:05;28.97;;;10.57;;
19183;SDS011;9724;51.194;6.856;2023-02-01T00:20:31;28.03;;;10.63;;
19183;SDS011;9724;51.194;6.856;2023-02-01T00:22:58;30.37;;;10.90;;
19183;SDS011;9724;51.194;6.856;2023-02-01T00:25:24;35.93;;;12.37;;
19183;SDS011;9724;51.194;6.856;2023-02-01T00:27:50;27.60;;;10.33;;
19183;SDS011;9724;51.194;6.856;2023-02-01T00:30:16;28.30;;;10.63;;
19183;SDS011;9724;51.194;6.856;2023-02-01T00:32:43;28.67;;;10.83;;
19183;SDS011;9724;51.194;6.856;2023-02-01T00:35:09;36.10;;;11.00;;
19183;SDS011;9724;51.194;6.856;2023-02-01T00:37:35;27.30;;;10.77;;
19183;SDS011;9724;51.194;6.856;2023-02-01T00:40:02;24.53;;;10.00;;
19183;SDS011;9724;51.194;6.856;2023-02-01T00:42:29;30.23;;;10.80;;
19183;SDS011;9724;51.194;6.856;2023-02-01T00:44:55;24.40;;;9.80;;
19183;SDS011;9724;51.194;6.856;2023-02-01T00:47:21;26.97;;;10.80;;
19183;SDS011;9724;51.194;6.856;2023-02-01T00:49:47;25.07;;;9.50;;
19183;SDS011;9724;51.194;6.856;2023-02-01T00:52:13;30.37;;;10.47;;
19183;SDS011;9724;51.194;6.856;2023-02-01T00:54:39;21.53;;;8.10;;
19183;SDS011;9724;51.194;6.856;2023-02-01T00:57:06;26.97;;;8.40;;
19183;SDS011;9724;51.194;6.856;2023-02-01T00:59:32;25.07;;;9.00;;
19183;SDS011;9724;51.194;6.856;2023-02-01T01:01:58;19.80;;;7.33;;
19183;SDS011;9724;51.194;6.856;2023-02-01T01:04:24;21.03;;;7.47;;
19183;SDS011;9724;51.194;6.856;2023-02-01T01:06:50;31.23;;;8.50;;
19183;SDS011;9724;51.194;6.856;2023-02-01T01:09:17;19.27;;;7.10;;
19183;SDS011;9724;51.194;6.856;2023-02-01T01:11:43;23.50;;;7.07;;
19183;SDS011;9724;51.194;6.856;2023-02-01T01:14:10;24.70;;;6.60;;
19183;SDS011;9724;51.194;6.856;2023-02-01T01:16:37;28.00;;;7.20;;
19183;SDS011;9724;51.194;6.856;2023-02-01T01:19:03;21.40;;;6.53;;
19183;SDS011;9724;51.194;6.856;2023-02-01T01:21:30;21.53;;;6.90;;
19183;SDS011;9724;51.194;6.856;2023-02-01T01:23:56;17.40;;;5.83;;
19183;SDS011;9724;51.194;6.856;2023-02-01T01:26:23;22.57;;;5.50;;
19183;SDS011;9724;51.194;6.856;2023-02-01T01:28:50;15.87;;;5.40;;
19183;SDS011;9724;51.194;6.856;2023-02-01T01:31:18;24.10;;;5.77;;
19183;SDS011;9724;51.194;6.856;2023-02-01T01:33:47;18.83;;;4.90;;
19183;SDS011;9724;51.194;6.856;2023-02-01T01:36:14;30.63;;;6.00;;
19183;SDS011;9724;51.194;6.856;2023-02-01T01:38:40;15.43;;;4.27;;
19183;SDS011;9724;51.194;6.856;2023-02-01T01:41:06;17.23;;;5.00;;
19183;SDS011;9724;51.194;6.856;2023-02-01T01:43:49;17.67;;;5.00;;
19183;SDS011;9724;51.194;6.856;2023-02-01T01:46:18;21.53;;;4.43;;
19183;SDS011;9724;51.194;6.856;2023-02-01T01:48:46;16.80;;;4.03;;
19183;SDS011;9724;51.194;6.856;2023-02-01T01:51:14;16.97;;;4.67;;
19183;SDS011;9724;51.194;6.856;2023-02-01T01:53:43;23.57;;;3.90;;
19183;SDS011;9724;51.194;6.856;2023-02-01T01:56:11;23.37;;;4.30;;
19183;SDS011;9724;51.194;6.856;2023-02-01T01:58:37;20.03;;;3.80;;
19183;SDS011;9724;51.194;6.856;2023-02-01T02:01:04;25.17;;;3.83;;
19183;SDS011;9724;51.194;6.856;2023-02-01T02:03:32;18.17;;;3.40;;
19183;SDS011;9724;51.194;6.856;2023-02-01T02:06:00;24.13;;;3.77;;
19183;SDS011;9724;51.194;6.856;2023-02-01T02:08:28;12.93;;;3.33;;
19183;SDS011;9724;51.194;6.856;2023-02-01T02:10:54;16.27;;;3.90;;
19183;SDS011;9724;51.194;6.856;2023-02-01T02:13:27;17.70;;;3.60;;
19183;SDS011;9724;51.194;6.856;2023-02-01T02:15:57;13.87;;;3.00;;
19183;SDS011;9724;51.194;6.856;2023-02-01T02:18:34;13.13;;;3.30;;
19183;SDS011;9724;51.194;6.856;2023-02-01T02:21:13;23.90;;;3.40;;
19183;SDS011;9724;51.194;6.856;2023-02-01T02:29:32;16.60;;;3.90;;
19183;SDS011;9724;51.194;6.856;2023-02-01T02:35:05;15.40;;;3.73;;
19183;SDS011;9724;51.194;6.856;2023-02-01T02:37:33;18.83;;;3.40;;
19183;SDS011;9724;51.194;6.856;2023-02-01T02:40:05;12.37;;;3.10;;
19183;SDS011;9724;51.194;6.856;2023-02-01T02:42:37;24.50;;;3.80;;
19183;SDS011;9724;51.194;6.856;2023-02-01T02:45:25;16.20;;;3.60;;
19183;SDS011;9724;51.194;6.856;2023-02-01T02:48:13;14.30;;;3.10;;
19183;SDS011;9724;51.194;6.856;2023-02-01T02:50:44;12.03;;;3.03;;
19183;SDS011;9724;51.194;6.856;2023-02-01T02:53:32;18.73;;;3.40;;
19183;SDS011;9724;51.194;6.856;2023-02-01T02:56:18;17.77;;;3.30;;
19183;SDS011;9724;51.194;6.856;2023-02-01T02:59:04;18.30;;;3.70;;
19183;SDS011;9724;51.194;6.856;2023-02-01T03:01:49;18.30;;;3.57;;
19183;SDS011;9724;51.194;6.856;2023-02-01T03:04:34;14.80;;;2.80;;
19183;SDS011;9724;51.194;6.856;2023-02-01T03:07:09;15.90;;;4.20;;
19183;SDS011;9724;51.194;6.856;2023-02-01T03:09:37;22.37;;;3.20;;
19183;SDS011;9724;51.194;6.856;2023-02-01T03:12:07;19.70;;;3.67;;
19183;SDS011;9724;51.194;6.856;2023-02-01T03:14:57;19.43;;;3.50;;
19183;SDS011;9724;51.194;6.856;2023-02-01T03:17:26;22.73;;;3.60;;
19183;SDS011;9724;51.194;6.856;2023-02-01T03:19:54;18.50;;;3.50;;
19183;SDS011;9724;51.194;6.856;2023-02-01T03:22:22;18.43;;;3.33;;
19183;SDS011;9724;51.194;6.856;2023-02-01T03:24:50;11.57;;;3.10;;
19183;SDS011;9724;51.194;6.856;2023-02-01T03:27:18;16.47;;;3.47;;
19183;SDS011;9724;51.194;6.856;2023-02-01T03:29:48;18.27;;;3.77;;
19183;SDS011;9724;51.194;6.856;2023-02-01T03:32:17;18.13;;;3.70;;
19183;SDS011;9724;51.194;6.856;2023-02-01T03:34:43;17.47;;;3.30;;
19183;SDS011;9724;51.194;6.856;2023-02-01T03:37:10;19.93;;;3.70;;
19183;SDS011;9724;51.194;6.856;2023-02-01T03:39:38;24.37;;;3.97;;
19183;SDS011;9724;51.194;6.856;2023-02-01T03:42:08;20.47;;;4.00;;
19183;SDS011;9724;51.194;6.856;2023-02-01T03:44:37;26.17;;;3.93;;
19183;SDS011;9724;51.194;6.856;2023-02-01T03:47:06;23.90;;;4.10;;
19183;SDS011;9724;51.194;6.856;2023-02-01T03:49:36;19.40;;;3.70;;
19183;SDS011;9724;51.194;6.856;2023-02-01T03:52:05;13.37;;;3.83;;
19183;SDS011;9724;51.194;6.856;2023-02-01T03:54:32;22.53;;;4.30;;
19183;SDS011;9724;51.194;6.856;2023-02-01T03:57:01;26.43;;;3.93;;
19183;SDS011;9724;51.194;6.856;2023-02-01T03:59:30;17.47;;;3.90;;
19183;SDS011;9724;51.194;6.856;2023-02-01T04:01:57;30.47;;;3.90;;
19183;SDS011;9724;51.194;6.856;2023-02-01T04:04:23;16.57;;;3.37;;
19183;SDS011;9724;51.194;6.856;2023-02-01T04:06:50;12.67;;;3.60;;
19183;SDS011;9724;51.194;6.856;2023-02-01T04:09:16;23.97;;;3.63;;
19183;SDS011;9724;51.194;6.856;2023-02-01T04:11:43;24.57;;;3.47;;
19183;SDS011;9724;51.194;6.856;2023-02-01T04:14:09;16.50;;;3.57;;
19183;SDS011;9724;51.194;6.856;2023-02-01T04:16:36;17.17;;;3.80;;
19183;SDS011;9724;51.194;6.856;2023-02-01T04:19:02;17.13;;;3.37;;
19183;SDS011;9724;51.194;6.856;2023-02-01T04:21:28;13.10;;;3.03;;
19183;SDS011;9724;51.194;6.856;2023-02-01T04:23:55;22.80;;;3.67;;
19183;SDS011;9724;51.194;6.856;2023-02-01T04:26:21;15.73;;;2.93;;
19183;SDS011;9724;51.194;6.856;2023-02-01T04:28:47;20.83;;;3.20;;
19183;SDS011;9724;51.194;6.856;2023-02-01T04:31:14;18.87;;;3.70;;
19183;SDS011;9724;51.194;6.856;2023-02-01T04:33:40;14.03;;;3.53;;
19183;SDS011;9724;51.194;6.856;2023-02-01T04:36:06;16.60;;;3.37;;
19183;SDS011;9724;51.194;6.856;2023-02-01T04:38:33;21.03;;;3.73;;
19183;SDS011;9724;51.194;6.856;2023-02-01T04:40:59;24.37;;;4.47;;
19183;SDS011;9724;51.194;6.856;2023-02-01T04:43:25;26.70;;;3.73;;
19183;SDS011;9724;51.194;6.856;2023-02-01T04:45:52;26.20;;;3.60;;
19183;SDS011;9724;51.194;6.856;2023-02-01T04:48:19;20.50;;;3.77;;
19183;SDS011;9724;51.194;6.856;2023-02-01T04:50:49;19.37;;;3.67;;
19183;SDS011;9724;51.194;6.856;2023-02-01T04:53:15;26.17;;;3.73;;
19183;SDS011;9724;51.194;6.856;2023-02-01T04:55:41;17.83;;;4.33;;
19183;SDS011;9724;51.194;6.856;2023-02-01T04:58:07;21.97;;;3.57;;
19183;SDS011;9724;51.194;6.856;2023-02-01T05:00:34;22.00;;;3.93;;
19183;SDS011;9724;51.194;6.856;2023-02-01T05:03:00;24.93;;;3.70;;
19183;SDS011;9724;51.194;6.856;2023-02-01T05:05:27;20.57;;;3.93;;
19183;SDS011;9724;51.194;6.856;2023-02-01T05:07:53;20.37;;;3.13;;
19183;SDS011;9724;51.194;6.856;2023-02-01T05:10:19;22.03;;;3.37;;
19183;SDS011;9724;51.194;6.856;2023-02-01T05:12:46;18.77;;;3.80;;
19183;SDS011;9724;51.194;6.856;2023-02-01T05:15:30;22.30;;;3.70;;
19183;SDS011;9724;51.194;6.856;2023-02-01T05:17:57;22.30;;;3.83;;
19183;SDS011;9724;51.194;6.856;2023-02-01T05:20:23;18.33;;;3.37;;
19183;SDS011;9724;51.194;6.856;2023-02-01T05:22:50;20.83;;;3.70;;
19183;SDS011;9724;51.194;6.856;2023-02-01T05:25:17;18.47;;;3.30;;
19183;SDS011;9724;51.194;6.856;2023-02-01T05:27:44;27.37;;;5.00;;
19183;SDS011;9724;51.194;6.856;2023-02-01T05:30:10;15.50;;;3.27;;
19183;SDS011;9724;51.194;6.856;2023-02-01T05:32:37;19.53;;;3.57;;
19183;SDS011;9724;51.194;6.856;2023-02-01T05:35:03;26.30;;;3.97;;
19183;SDS011;9724;51.194;6.856;2023-02-01T05:37:30;22.97;;;3.53;;
19183;SDS011;9724;51.194;6.856;2023-02-01T05:39:57;18.13;;;3.70;;
19183;SDS011;9724;51.194;6.856;2023-02-01T05:42:23;22.63;;;4.00;;
19183;SDS011;9724;51.194;6.856;2023-02-01T05:44:49;21.47;;;3.50;;
19183;SDS011;9724;51.194;6.856;2023-02-01T05:47:15;21.23;;;4.10;;
19183;SDS011;9724;51.194;6.856;2023-02-01T05:49:41;24.33;;;4.37;;
19183;SDS011;9724;51.194;6.856;2023-02-01T05:52:08;24.57;;;4.83;;
19183;SDS011;9724;51.194;6.856;2023-02-01T05:54:34;14.50;;;3.00;;
19183;SDS011;9724;51.194;6.856;2023-02-01T05:57:00;20.17;;;3.67;;
19183;SDS011;9724;51.194;6.856;2023-02-01T05:59:27;17.63;;;3.33;;
19183;SDS011;9724;51.194;6.856;2023-02-01T06:01:53;24.63;;;4.20;;
19183;SDS011;9724;51.194;6.856;2023-02-01T06:04:19;18.63;;;3.30;;
19183;SDS011;9724;51.194;6.856;2023-02-01T06:06:45;22.87;;;3.33;;
19183;SDS011;9724;51.194;6.856;2023-02-01T06:09:11;12.70;;;2.70;;
19183;SDS011;9724;51.194;6.856;2023-02-01T06:11:38;20.37;;;3.37;;
19183;SDS011;9724;51.194;6.856;2023-02-01T06:14:06;18.37;;;3.77;;
19183;SDS011;9724;51.194;6.856;2023-02-01T06:16:35;31.47;;;4.40;;
19183;SDS011;9724;51.194;6.856;2023-02-01T06:19:01;23.83;;;3.70;;
19183;SDS011;9724;51.194;6.856;2023-02-01T06:21:27;25.73;;;3.73;;
19183;SDS011;9724;51.194;6.856;2023-02-01T06:23:53;27.57;;;4.07;;
19183;SDS011;9724;51.194;6.856;2023-02-01T06:26:20;20.37;;;3.30;;
19183;SDS011;9724;51.194;6.856;2023-02-01T06:28:46;21.80;;;3.27;;
19183;SDS011;9724;51.194;6.856;2023-02-01T06:31:13;32.03;;;3.83;;
19183;SDS011;9724;51.194;6.856;2023-02-01T06:33:39;25.60;;;4.33;;
19183;SDS011;9724;51.194;6.856;2023-02-01T06:36:06;17.20;;;3.43;;
19183;SDS011;9724;51.194;6.856;2023-02-01T06:38:33;17.50;;;4.00;;
19183;SDS011;9724;51.194;6.856;2023-02-01T06:41:01;18.87;;;4.33;;
19183;SDS011;9724;51.194;6.856;2023-02-01T06:43:27;19.30;;;3.60;;
19183;SDS011;9724;51.194;6.856;2023-02-01T06:45:58;24.93;;;3.60;;
19183;SDS011;9724;51.194;6.856;2023-02-01T06:48:25;20.90;;;3.10;;
19183;SDS011;9724;51.194;6.856;2023-02-01T06:50:52;25.77;;;3.60;;
19183;SDS011;9724;51.194;6.856;2023-02-01T06:53:18;16.53;;;3.63;;
19183;SDS011;9724;51.194;6.856;2023-02-01T06:55:50;23.23;;;3.97;;
19183;SDS011;9724;51.194;6.856;2023-02-01T06:58:17;23.93;;;4.13;;
19183;SDS011;9724;51.194;6.856;2023-02-01T07:00:43;21.27;;;3.80;;
19183;SDS011;9724;51.194;6.856;2023-02-01T07:03:09;23.33;;;3.87;;
19183;SDS011;9724;51.194;6.856;2023-02-01T07:05:36;24.77;;;4.00;;
19183;SDS011;9724;51.194;6.856;2023-02-01T07:08:02;19.30;;;3.60;;
19183;SDS011;9724;51.194;6.856;2023-02-01T07:10:29;23.50;;;3.67;;
19183;SDS011;9724;51.194;6.856;2023-02-01T07:12:56;24.60;;;4.43;;
19183;SDS011;9724;51.194;6.856;2023-02-01T07:15:22;24.17;;;4.03;;
19183;SDS011;9724;51.194;6.856;2023-02-01T07:17:50;19.77;;;3.13;;
19183;SDS011;9724;51.194;6.856;2023-02-01T07:20:16;17.33;;;4.23;;
19183;SDS011;9724;51.194;6.856;2023-02-01T07:22:43;19.07;;;3.33;;
19183;SDS011;9724;51.194;6.856;2023-02-01T07:25:10;22.73;;;4.20;;
19183;SDS011;9724;51.194;6.856;2023-02-01T07:27:36;25.27;;;3.90;;
19183;SDS011;9724;51.194;6.856;2023-02-01T07:30:02;16.50;;;3.50;;
19183;SDS011;9724;51.194;6.856;2023-02-01T07:32:29;32.40;;;4.90;;
19183;SDS011;9724;51.194;6.856;2023-02-01T07:34:56;22.53;;;4.23;;
19183;SDS011;9724;51.194;6.856;2023-02-01T07:37:22;22.93;;;3.20;;
19183;SDS011;9724;51.194;6.856;2023-02-01T07:39:50;18.97;;;4.20;;
19183;SDS011;9724;51.194;6.856;2023-02-01T07:42:16;23.73;;;3.70;;
19183;SDS011;9724;51.194;6.856;2023-02-01T07:44:42;17.27;;;3.50;;
19183;SDS011;9724;51.194;6.856;2023-02-01T07:47:08;19.27;;;3.67;;
19183;SDS011;9724;51.194;6.856;2023-02-01T07:49:34;37.67;;;4.87;;
19183;SDS011;9724;51.194;6.856;2023-02-01T07:52:00;25.07;;;4.40;;
19183;SDS011;9724;51.194;6.856;2023-02-01T07:54:27;13.73;;;3.50;;
19183;SDS011;9724;51.194;6.856;2023-02-01T07:56:54;24.63;;;3.97;;
19183;SDS011;9724;51.194;6.856;2023-02-01T07:59:20;21.20;;;3.90;;
19183;SDS011;9724;51.194;6.856;2023-02-01T08:01:46;33.53;;;5.07;;
19183;SDS011;9724;51.194;6.856;2023-02-01T08:04:12;22.67;;;3.93;;
19183;SDS011;9724;51.194;6.856;2023-02-01T08:06:39;23.87;;;3.80;;
19183;SDS011;9724;51.194;6.856;2023-02-01T08:09:05;21.30;;;3.90;;
19183;SDS011;9724;51.194;6.856;2023-02-01T08:11:33;21.93;;;3.53;;
19183;SDS011;9724;51.194;6.856;2023-02-01T08:14:02;27.40;;;4.13;;
19183;SDS011;9724;51.194;6.856;2023-02-01T08:16:28;24.93;;;3.93;;
19183;SDS011;9724;51.194;6.856;2023-02-01T08:18:54;21.90;;;3.90;;
19183;SDS011;9724;51.194;6.856;2023-02-01T08:21:22;17.17;;;3.50;;
19183;SDS011;9724;51.194;6.856;2023-02-01T08:23:49;17.43;;;3.00;;
19183;SDS011;9724;51.194;6.856;2023-02-01T08:26:16;21.37;;;3.70;;
19183;SDS011;9724;51.194;6.856;2023-02-01T08:28:44;32.10;;;4.37;;
19183;SDS011;9724;51.194;6.856;2023-02-01T08:31:13;21.90;;;3.30;;
19183;SDS011;9724;51.194;6.856;2023-02-01T08:33:40;19.57;;;3.63;;
19183;SDS011;9724;51.194;6.856;2023-02-01T08:36:08;21.73;;;3.83;;
19183;SDS011;9724;51.194;6.856;2023-02-01T08:38:35;29.97;;;4.40;;
19183;SDS011;9724;51.194;6.856;2023-02-01T08:41:03;21.30;;;4.17;;
19183;SDS011;9724;51.194;6.856;2023-02-01T08:43:31;32.43;;;4.23;;
19183;SDS011;9724;51.194;6.856;2023-02-01T08:45:57;29.27;;;3.90;;
19183;SDS011;9724;51.194;6.856;2023-02-01T08:48:24;28.97;;;3.97;;
19183;SDS011;9724;51.194;6.856;2023-02-01T08:50:50;15.47;;;4.33;;
19183;SDS011;9724;51.194;6.856;2023-02-01T08:53:16;23.13;;;3.67;;
19183;SDS011;9724;51.194;6.856;2023-02-01T08:55:42;26.53;;;4.30;;
19183;SDS011;9724;51.194;6.856;2023-02-01T08:58:08;30.90;;;4.70;;
19183;SDS011;9724;51.194;6.856;2023-02-01T09:00:34;22.93;;;3.93;;
19183;SDS011;9724;51.194;6.856;2023-02-01T09:03:00;18.77;;;4.33;;
19183;SDS011;9724;51.194;6.856;2023-02-01T09:05:28;13.17;;;3.27;;
19183;SDS011;9724;51.194;6.856;2023-02-01T09:08:13;24.97;;;4.00;;
19183;SDS011;9724;51.194;6.856;2023-02-01T09:10:44;30.50;;;4.87;;
19183;SDS011;9724;51.194;6.856;2023-02-01T09:13:10;27.33;;;4.77;;
19183;SDS011;9724;51.194;6.856;2023-02-01T09:15:36;22.27;;;4.30;;
19183;SDS011;9724;51.194;6.856;2023-02-01T09:18:03;19.00;;;3.70;;
19183;SDS011;9724;51.194;6.856;2023-02-01T09:20:29;21.30;;;4.10;;
19183;SDS011;9724;51.194;6.856;2023-02-01T09:22:57;21.17;;;3.93;;
19183;SDS011;9724;51.194;6.856;2023-02-01T09:25:23;20.77;;;3.70;;
19183;SDS011;9724;51.194;6.856;2023-02-01T09:27:49;20.77;;;3.97;;
19183;SDS011;9724;51.194;6.856;2023-02-01T09:30:16;18.47;;;3.77;;
19183;SDS011;9724;51.194;6.856;2023-02-01T09:32:42;21.60;;;3.83;;
19183;SDS011;9724;51.194;6.856;2023-02-01T09:35:09;17.70;;;3.87;;
19183;SDS011;9724;51.194;6.856;2023-02-01T09:37:35;18.47;;;3.50;;
19183;SDS011;9724;51.194;6.856;2023-02-01T09:40:03;27.10;;;4.10;;
19183;SDS011;9724;51.194;6.856;2023-02-01T09:42:35;23.60;;;3.73;;
19183;SDS011;9724;51.194;6.856;2023-02-01T09:45:13;20.93;;;4.20;;
19183;SDS011;9724;51.194;6.856;2023-02-01T09:47:46;23.40;;;3.97;;
19183;SDS011;9724;51.194;6.856;2023-02-01T09:50:14;21.13;;;4.43;;
19183;SDS011;9724;51.194;6.856;2023-02-01T09:52:47;24.73;;;3.97;;
19183;SDS011;9724;51.194;6.856;2023-02-01T09:55:19;30.30;;;4.03;;
19183;SDS011;9724;51.194;6.856;2023-02-01T09:57:49;28.50;;;5.50;;
19183;SDS011;9724;51.194;6.856;2023-02-01T10:00:19;23.77;;;4.00;;
19183;SDS011;9724;51.194;6.856;2023-02-01T10:02:47;23.50;;;4.10;;
19183;SDS011;9724;51.194;6.856;2023-02-01T10:05:15;31.77;;;4.70;;
19183;SDS011;9724;51.194;6.856;2023-02-01T10:07:44;24.23;;;4.97;;
19183;SDS011;9724;51.194;6.856;2023-02-01T10:10:17;26.33;;;4.07;;
19183;SDS011;9724;51.194;6.856;2023-02-01T10:12:59;25.43;;;5.00;;
19183;SDS011;9724;51.194;6.856;2023-02-01T10:15:35;15.37;;;4.30;;
19183;SDS011;9724;51.194;6.856;2023-02-01T10:18:18;26.83;;;4.63;;
19183;SDS011;9724;51.194;6.856;2023-02-01T10:20:57;25.17;;;4.33;;
19183;SDS011;9724;51.194;6.856;2023-02-01T10:23:30;21.67;;;4.93;;
19183;SDS011;9724;51.194;6.856;2023-02-01T10:26:08;28.50;;;4.37;;
19183;SDS011;9724;51.194;6.856;2023-02-01T10:28:41;17.80;;;3.93;;
19183;SDS011;9724;51.194;6.856;2023-02-01T10:31:09;29.00;;;4.30;;
19183;SDS011;9724;51.194;6.856;2023-02-01T10:33:36;16.20;;;3.80;;
19183;SDS011;9724;51.194;6.856;2023-02-01T10:36:08;19.37;;;4.07;;
19183;SDS011;9724;51.194;6.856;2023-02-01T10:38:39;27.47;;;4.23;;
19183;SDS011;9724;51.194;6.856;2023-02-01T10:41:08;23.37;;;4.07;;
19183;SDS011;9724;51.194;6.856;2023-02-01T10:43:38;27.90;;;4.27;;
19183;SDS011;9724;51.194;6.856;2023-02-01T10:46:04;19.73;;;3.73;;
19183;SDS011;9724;51.194;6.856;2023-02-01T10:48:31;16.60;;;4.97;;
19183;SDS011;9724;51.194;6.856;2023-02-01T10:50:58;20.60;;;4.20;;
19183;SDS011;9724;51.194;6.856;2023-02-01T10:53:28;21.00;;;4.03;;
19183;SDS011;9724;51.194;6.856;2023-02-01T10:55:58;25.27;;;4.47;;
19183;SDS011;9724;51.194;6.856;2023-02-01T10:58:31;18.17;;;3.90;;
19183;SDS011;9724;51.194;6.856;2023-02-01T11:00:59;21.67;;;3.87;;
19183;SDS011;9724;51.194;6.856;2023-02-01T11:03:33;19.47;;;4.03;;
19183;SDS011;9724;51.194;6.856;2023-02-01T11:06:00;21.47;;;3.90;;
19183;SDS011;9724;51.194;6.856;2023-02-01T11:08:27;17.17;;;3.87;;
19183;SDS011;9724;51.194;6.856;2023-02-01T11:10:58;23.70;;;4.00;;
19183;SDS011;9724;51.194;6.856;2023-02-01T11:13:28;19.40;;;4.00;;
19183;SDS011;9724;51.194;6.856;2023-02-01T11:15:55;18.70;;;3.77;;
19183;SDS011;9724;51.194;6.856;2023-02-01T11:18:25;26.60;;;3.93;;
19183;SDS011;9724;51.194;6.856;2023-02-01T11:20:52;15.20;;;3.80;;
19183;SDS011;9724;51.194;6.856;2023-02-01T11:23:21;23.83;;;4.13;;
19183;SDS011;9724;51.194;6.856;2023-02-01T11:25:49;27.10;;;4.33;;
19183;SDS011;9724;51.194;6.856;2023-02-01T11:28:18;16.97;;;3.70;;
19183;SDS011;9724;51.194;6.856;2023-02-01T11:30:46;18.87;;;3.80;;
19183;SDS011;9724;51.194;6.856;2023-02-01T11:33:15;30.93;;;4.07;;
19183;SDS011;9724;51.194;6.856;2023-02-01T11:35:43;18.97;;;3.80;;
19183;SDS011;9724;51.194;6.856;2023-02-01T11:38:20;19.87;;;4.63;;
19183;SDS011;9724;51.194;6.856;2023-02-01T11:40:47;12.60;;;3.60;;
19183;SDS011;9724;51.194;6.856;2023-02-01T11:43:16;17.23;;;3.67;;
19183;SDS011;9724;51.194;6.856;2023-02-01T11:45:53;20.80;;;4.20;;
19183;SDS011;9724;51.194;6.856;2023-02-01T11:48:20;22.73;;;4.47;;
19183;SDS011;9724;51.194;6.856;2023-02-01T11:50:56;13.20;;;3.40;;
19183;SDS011;9724;51.194;6.856;2023-02-01T11:53:35;23.97;;;4.27;;
19183;SDS011;9724;51.194;6.856;2023-02-01T11:56:10;17.53;;;3.30;;
19183;SDS011;9724;51.194;6.856;2023-02-01T11:58:56;20.53;;;3.10;;
19183;SDS011;9724;51.194;6.856;2023-02-01T12:01:52;21.47;;;4.20;;
19183;SDS011;9724;51.194;6.856;2023-02-01T12:07:14;13.73;;;3.67;;
19183;SDS011;9724;51.194;6.856;2023-02-01T12:09:52;26.90;;;3.70;;
19183;SDS011;9724;51.194;6.856;2023-02-01T12:12:28;20.00;;;3.23;;
19183;SDS011;9724;51.194;6.856;2023-02-01T12:15:05;15.10;;;2.93;;
19183;SDS011;9724;51.194;6.856;2023-02-01T12:18:05;22.07;;;3.83;;
19183;SDS011;9724;51.194;6.856;2023-02-01T12:20:56;27.23;;;3.80;;
19183;SDS011;9724;51.194;6.856;2023-02-01T12:23:34;16.20;;;2.93;;
19183;SDS011;9724;51.194;6.856;2023-02-01T12:26:10;18.10;;;3.47;;
19183;SDS011;9724;51.194;6.856;2023-02-01T12:28:55;17.53;;;3.30;;
19183;SDS011;9724;51.194;6.856;2023-02-01T12:31:45;25.47;;;3.70;;
19183;SDS011;9724;51.194;6.856;2023-02-01T12:34:37;21.73;;;4.07;;
19183;SDS011;9724;51.194;6.856;2023-02-01T12:37:13;17.30;;;3.97;;
19183;SDS011;9724;51.194;6.856;2023-02-01T12:39:47;17.83;;;3.73;;
19183;SDS011;9724;51.194;6.856;2023-02-01T12:42:18;21.60;;;4.10;;
19183;SDS011;9724;51.194;6.856;2023-02-01T12:44:48;18.03;;;3.70;;
19183;SDS011;9724;51.194;6.856;2023-02-01T12:47:18;21.77;;;4.07;;
19183;SDS011;9724;51.194;6.856;2023-02-01T12:49:48;17.07;;;3.87;;
19183;SDS011;9724;51.194;6.856;2023-02-01T12:52:19;17.70;;;3.80;;
19183;SDS011;9724;51.194;6.856;2023-02-01T12:54:48;15.47;;;3.40;;
19183;SDS011;9724;51.194;6.856;2023-02-01T12:57:17;14.90;;;3.70;;
19183;SDS011;9724;51.194;6.856;2023-02-01T12:59:47;23.93;;;4.27;;
19183;SDS011;9724;51.194;6.856;2023-02-01T13:02:19;17.33;;;3.53;;
19183;SDS011;9724;51.194;6.856;2023-02-01T13:04:55;15.37;;;3.30;;
19183;SDS011;9724;51.194;6.856;2023-02-01T13:07:28;16.93;;;3.97;;
19183;SDS011;9724;51.194;6.856;2023-02-01T13:09:57;22.97;;;3.33;;
19183;SDS011;9724;51.194;6.856;2023-02-01T13:12:28;19.07;;;3.20;;
19183;SDS011;9724;51.194;6.856;2023-02-01T13:14:58;18.47;;;3.20;;
19183;SDS011;9724;51.194;6.856;2023-02-01T13:17:29;19.83;;;3.67;;
19183;SDS011;9724;51.194;6.856;2023-02-01T13:19:58;20.10;;;3.20;;
19183;SDS011;9724;51.194;6.856;2023-02-01T13:22:27;16.33;;;2.93;;
19183;SDS011;9724;51.194;6.856;2023-02-01T13:24:56;16.03;;;3.67;;
19183;SDS011;9724;51.194;6.856;2023-02-01T13:27:23;11.90;;;3.07;;
19183;SDS011;9724;51.194;6.856;2023-02-01T13:29:54;18.97;;;3.80;;
19183;SDS011;9724;51.194;6.856;2023-02-01T13:32:26;17.00;;;3.20;;
19183;SDS011;9724;51.194;6.856;2023-02-01T13:35:44;13.70;;;2.70;;
19183;SDS011;9724;51.194;6.856;2023-02-01T13:41:30;18.63;;;3.57;;
19183;SDS011;9724;51.194;6.856;2023-02-01T13:43:58;16.60;;;2.90;;
19183;SDS011;9724;51.194;6.856;2023-02-01T13:46:26;19.53;;;3.17;;
19183;SDS011;9724;51.194;6.856;2023-02-01T13:48:54;16.00;;;3.20;;
19183;SDS011;9724;51.194;6.856;2023-02-01T13:51:32;14.83;;;2.90;;
19183;SDS011;9724;51.194;6.856;2023-02-01T13:54:00;13.00;;;2.50;;
19183;SDS011;9724;51.194;6.856;2023-02-01T13:56:27;21.47;;;2.93;;
19183;SDS011;9724;51.194;6.856;2023-02-01T13:58:53;16.53;;;2.70;;
19183;SDS011;9724;51.194;6.856;2023-02-01T14:01:33;12.37;;;3.20;;
19183;SDS011;9724;51.194;6.856;2023-02-01T14:04:02;11.90;;;2.70;;
19183;SDS011;9724;51.194;6.856;2023-02-01T14:06:35;17.93;;;2.93;;
19183;SDS011;9724;51.194;6.856;2023-02-01T14:09:13;12.53;;;2.70;;
19183;SDS011;9724;51.194;6.856;2023-02-01T14:11:42;12.13;;;2.37;;
19183;SDS011;9724;51.194;6.856;2023-02-01T14:23:28;18.23;;;2.67;;
19183;SDS011;9724;51.194;6.856;2023-02-01T14:28:42;12.80;;;2.37;;
19183;SDS011;9724;51.194;6.856;2023-02-01T14:34:13;16.37;;;2.77;;
19183;SDS011;9724;51.194;6.856;2023-02-01T14:36:44;19.97;;;2.57;;
19183;SDS011;9724;51.194;6.856;2023-02-01T14:39:20;15.30;;;2.43;;
19183;SDS011;9724;51.194;6.856;2023-02-01T14:41:48;16.60;;;3.37;;
19183;SDS011;9724;51.194;6.856;2023-02-01T14:44:29;17.60;;;2.60;;
19183;SDS011;9724;51.194;6.856;2023-02-01T14:47:06;16.60;;;2.67;;
19183;SDS011;9724;51.194;6.856;2023-02-01T14:49:52;13.77;;;2.57;;
19183;SDS011;9724;51.194;6.856;2023-02-01T14:52:22;13.27;;;2.80;;
19183;SDS011;9724;51.194;6.856;2023-02-01T14:54:55;18.40;;;3.37;;
19183;SDS011;9724;51.194;6.856;2023-02-01T14:57:23;19.23;;;2.60;;
19183;SDS011;9724;51.194;6.856;2023-02-01T14:59:52;20.13;;;2.90;;
19183;SDS011;9724;51.194;6.856;2023-02-01T15:02:23;15.23;;;2.57;;
19183;SDS011;9724;51.194;6.856;2023-02-01T15:04:53;13.63;;;2.20;;
19183;SDS011;9724;51.194;6.856;2023-02-01T15:07:20;12.13;;;2.40;;
19183;SDS011;9724;51.194;6.856;2023-02-01T15:09:47;20.60;;;2.63;;
19183;SDS011;9724;51.194;6.856;2023-02-01T15:12:16;14.90;;;2.57;;
19183;SDS011;9724;51.194;6.856;2023-02-01T15:14:46;16.37;;;2.23;;
19183;SDS011;9724;51.194;6.856;2023-02-01T15:17:18;18.07;;;2.20;;
19183;SDS011;9724;51.194;6.856;2023-02-01T15:19:52;14.73;;;2.20;;
19183;SDS011;9724;51.194;6.856;2023-02-01T15:22:19;16.37;;;2.60;;
19183;SDS011;9724;51.194;6.856;2023-02-01T15:24:51;17.97;;;3.03;;
19183;SDS011;9724;51.194;6.856;2023-02-01T15:27:18;16.40;;;3.03;;
19183;SDS011;9724;51.194;6.856;2023-02-01T15:29:44;18.73;;;3.13;;
19183;SDS011;9724;51.194;6.856;2023-02-01T15:34:55;14.57;;;2.87;;